Time;durP1;ratioP1;P1;durP2;ratioP2;P2;SDS_P1;SDS_P2;PMS_P1;PMS_P2;Temp;Humidity;BMP_temperature;BMP_pressure;BME280_temperature;BME280_humidity;BME280_pressure;Samples;Min_cycle;Max_cycle;Signal;HPM_P1;HPM_P2
2023/03/05 00:01:19;;;;;;;1.23;1.00;;;-0.10;99.90;;;;;;4978627;28;20018;-81
2023/03/05 00:03:45;;;;;;;2.10;1.00;;;-0.20;99.90;;;;;;4976185;28;20038;-80
2023/03/05 00:06:11;;;;;;;1.65;1.17;;;-0.20;99.90;;;;;;4975247;28;20396;-81
2023/03/05 00:08:37;;;;;;;1.88;1.10;;;-0.20;99.90;;;;;;4976206;28;20512;-82
2023/03/05 00:11:06;;;;;;;1.85;1.17;;;-0.20;99.90;;;;;;4989038;28;20036;-82
2023/03/05 00:13:32;;;;;;;3.42;1.15;;;-0.20;99.90;;;;;;4965510;28;20026;-81
2023/03/05 00:15:58;;;;;;;6.32;1.70;;;-0.20;99.90;;;;;;4954582;28;20030;-82
2023/03/05 00:18:24;;;;;;;2.75;1.55;;;-0.20;99.90;;;;;;4966681;28;20023;-82
2023/03/05 00:20:50;;;;;;;1.48;1.00;;;-0.30;99.90;;;;;;4969736;28;20025;-80
2023/03/05 00:23:16;;;;;;;1.08;1.00;;;-0.20;99.90;;;;;;4998245;28;20038;-83
2023/03/05 00:25:43;;;;;;;1.30;1.02;;;-0.30;99.90;;;;;;4985856;28;20026;-81
2023/03/05 00:28:09;;;;;;;2.30;1.45;;;-0.30;99.90;;;;;;4994738;28;20037;-81
2023/03/05 00:30:35;;;;;;;1.80;1.10;;;-0.30;99.90;;;;;;4981768;28;20022;-80
2023/03/05 00:33:01;;;;;;;1.85;1.30;;;-0.30;99.90;;;;;;4986643;28;20019;-80
2023/03/05 00:35:27;;;;;;;4.13;1.50;;;-0.30;99.90;;;;;;4986235;28;20496;-80
2023/03/05 00:37:53;;;;;;;3.85;1.67;;;-0.30;99.90;;;;;;4983483;28;20051;-80
2023/03/05 00:40:19;;;;;;;2.53;1.20;;;-0.40;99.90;;;;;;4980046;28;20106;-82
2023/03/05 00:42:45;;;;;;;1.92;1.40;;;-0.40;99.90;;;;;;4978862;28;20030;-80
2023/03/05 00:45:11;;;;;;;1.70;1.00;;;-0.30;99.90;;;;;;4978948;28;20109;-81
2023/03/05 00:47:37;;;;;;;2.83;1.45;;;-0.30;99.90;;;;;;4978182;28;20026;-81
2023/03/05 00:50:04;;;;;;;4.25;1.73;;;-0.30;99.90;;;;;;4976792;28;20043;-80
2023/03/05 00:52:30;;;;;;;2.60;1.10;;;-0.30;99.90;;;;;;4981804;28;20050;-82
2023/03/05 00:54:56;;;;;;;3.88;1.25;;;-0.30;99.90;;;;;;4963172;28;20031;-81
2023/03/05 00:57:22;;;;;;;5.28;1.10;;;-0.30;99.90;;;;;;4979873;28;20019;-80
2023/03/05 00:59:48;;;;;;;2.05;1.10;;;-0.40;99.90;;;;;;4965421;28;20027;-80
2023/03/05 01:02:14;;;;;;;3.53;1.30;;;-0.40;99.90;;;;;;4978801;28;20019;-79
2023/03/05 01:04:42;;;;;;;2.33;1.27;;;-0.50;99.90;;;;;;4961535;28;20460;-80
2023/03/05 01:07:08;;;;;;;1.55;1.10;;;-0.50;99.90;;;;;;4975772;28;20110;-79
2023/03/05 01:09:34;;;;;;;1.42;1.05;;;-0.50;99.90;;;;;;4978376;28;20074;-79
2023/03/05 01:11:59;;;;;;;7.18;1.23;;;-0.50;99.90;;;;;;4982259;28;20023;-82
2023/03/05 01:14:27;;;;;;;1.15;0.95;;;-0.50;99.90;;;;;;4970464;28;20162;-80
2023/03/05 01:16:53;;;;;;;1.42;1.13;;;-0.50;99.90;;;;;;4978069;28;20062;-82
2023/03/05 01:19:19;;;;;;;2.40;1.48;;;-0.60;99.90;;;;;;4962696;28;20487;-79
2023/03/05 01:21:45;;;;;;;1.58;1.15;;;-0.50;99.90;;;;;;4976657;28;20034;-84
2023/03/05 01:24:11;;;;;;;2.47;0.93;;;-0.50;99.90;;;;;;4977227;28;20034;-80
2023/03/05 01:26:36;;;;;;;2.25;1.92;;;-0.50;99.90;;;;;;4979741;28;20019;-80
2023/03/05 01:29:02;;;;;;;1.38;1.08;;;-0.60;99.90;;;;;;4988079;28;20053;-81
2023/03/05 01:31:28;;;;;;;2.85;1.10;;;-0.60;99.90;;;;;;4984529;28;20031;-81
2023/03/05 01:33:54;;;;;;;1.65;0.93;;;-0.60;99.90;;;;;;4976955;28;20022;-81
2023/03/05 01:36:23;;;;;;;1.20;1.10;;;-0.60;99.90;;;;;;4974165;28;20097;-80
2023/03/05 01:38:50;;;;;;;1.83;1.30;;;-0.60;99.90;;;;;;4974365;28;20077;-81
2023/03/05 01:41:17;;;;;;;1.73;1.02;;;-0.70;99.90;;;;;;4978975;28;20102;-79
2023/03/05 01:43:44;;;;;;;1.25;1.00;;;-0.70;99.90;;;;;;4956557;28;20444;-83
2023/03/05 01:46:35;;;;;;;2.55;1.42;;;-0.80;99.90;;;;;;4974062;28;20077;-80
2023/03/05 01:49:25;;;;;;;6.10;1.27;;;-0.90;99.90;;;;;;4970432;28;20447;-81
2023/03/05 01:52:01;;;;;;;3.80;2.17;;;-0.90;99.90;;;;;;4967824;28;20113;-80
2023/03/05 01:54:35;;;;;;;0.60;0.60;;;-1.00;99.90;;;;;;4974330;28;20139;-81
2023/03/05 01:57:15;;;;;;;2.10;1.10;;;-1.10;99.90;;;;;;4972601;28;20021;-80
2023/03/05 01:59:44;;;;;;;2.55;1.50;;;-1.20;99.90;;;;;;4955520;28;20476;-80
2023/03/05 02:02:12;;;;;;;1.42;0.90;;;-1.20;99.90;;;;;;4973622;28;20423;-81
2023/03/05 02:04:45;;;;;;;1.38;1.00;;;-1.30;99.90;;;;;;4973500;28;20030;-81
2023/03/05 02:07:13;;;;;;;2.13;0.90;;;-1.30;99.90;;;;;;4984663;28;20018;-82
2023/03/05 02:09:40;;;;;;;2.58;1.48;;;-1.40;99.90;;;;;;4958320;28;20051;-81
2023/03/05 02:12:08;;;;;;;6.38;4.57;;;-1.40;99.90;;;;;;4975593;28;20199;-80
2023/03/05 02:14:34;;;;;;;2.42;1.00;;;-1.40;99.90;;;;;;4973340;28;20030;-81
2023/03/05 02:17:00;;;;;;;3.72;1.13;;;-1.40;99.90;;;;;;4982127;28;20047;-80
2023/03/05 02:19:26;;;;;;;2.05;1.10;;;-1.40;99.90;;;;;;4977473;28;20023;-80
2023/03/05 02:21:52;;;;;;;2.17;1.10;;;-1.30;99.90;;;;;;4974013;28;20026;-80
2023/03/05 02:24:34;;;;;;;1.50;1.30;;;-1.30;99.90;;;;;;4973931;28;20037;-80
2023/03/05 02:27:00;;;;;;;2.38;1.10;;;-1.30;99.90;;;;;;4955960;28;20028;-81
2023/03/05 02:29:28;;;;;;;4.37;1.40;;;-1.30;99.90;;;;;;4977382;28;20480;-80
2023/03/05 02:31:54;;;;;;;1.48;1.08;;;-1.20;99.90;;;;;;4979779;28;20351;-80
2023/03/05 02:34:21;;;;;;;3.28;1.00;;;-1.20;99.90;;;;;;4979520;28;20113;-81
2023/03/05 02:36:49;;;;;;;4.50;1.40;;;-1.20;99.90;;;;;;4964340;28;20110;-78
2023/03/05 02:39:16;;;;;;;3.80;1.27;;;-1.30;99.90;;;;;;4981067;28;20034;-81
2023/03/05 02:41:42;;;;;;;1.92;1.27;;;-1.20;99.90;;;;;;4980202;28;20456;-81
2023/03/05 02:44:08;;;;;;;1.65;1.10;;;-1.30;99.90;;;;;;4962935;28;20034;-80
2023/03/05 02:46:34;;;;;;;1.52;1.40;;;-1.30;99.90;;;;;;4980812;28;20047;-80
2023/03/05 02:49:00;;;;;;;2.35;1.33;;;-1.30;99.90;;;;;;4979997;28;20069;-81
2023/03/05 02:51:26;;;;;;;2.70;1.55;;;-1.30;99.90;;;;;;4979150;28;20473;-81
2023/03/05 02:53:52;;;;;;;3.63;3.30;;;-1.40;99.90;;;;;;4980436;28;20102;-81
2023/03/05 02:56:18;;;;;;;3.15;1.25;;;-1.50;99.90;;;;;;4991523;28;20011;-80
2023/03/05 02:58:44;;;;;;;2.55;1.55;;;-1.50;99.90;;;;;;4997642;28;20022;-82
2023/03/05 03:01:10;;;;;;;2.05;1.02;;;-1.50;99.90;;;;;;4984510;28;20365;-82
2023/03/05 03:03:36;;;;;;;2.45;1.25;;;-1.60;99.90;;;;;;4994430;28;20031;-80
2023/03/05 03:06:02;;;;;;;2.95;1.40;;;-1.60;99.90;;;;;;4981483;28;20476;-82
2023/03/05 03:08:28;;;;;;;1.73;1.27;;;-1.60;99.90;;;;;;4986126;28;20050;-80
2023/03/05 03:10:55;;;;;;;3.47;1.20;;;-1.60;99.90;;;;;;4979722;28;20102;-82
2023/03/05 03:13:24;;;;;;;4.70;2.00;;;-1.70;99.90;;;;;;4980449;28;20023;-81
2023/03/05 03:16:00;;;;;;;2.72;1.52;;;-1.70;99.90;;;;;;4980579;28;20058;-79
2023/03/05 03:18:25;;;;;;;3.50;1.30;;;-1.70;99.90;;;;;;4980152;28;20062;-82
2023/03/05 03:20:51;;;;;;;3.95;1.23;;;-1.70;99.90;;;;;;4999651;28;20027;-81
2023/03/05 03:23:17;;;;;;;2.55;1.48;;;-1.70;99.90;;;;;;4982862;28;20058;-81
2023/03/05 03:25:43;;;;;;;3.85;1.13;;;-1.60;99.90;;;;;;4981032;28;20026;-83
2023/03/05 03:28:09;;;;;;;3.90;1.58;;;-1.60;99.90;;;;;;4974434;28;20488;-81
2023/03/05 03:30:35;;;;;;;1.27;1.10;;;-1.60;99.90;;;;;;4980588;28;20050;-80
2023/03/05 03:33:00;;;;;;;1.65;1.20;;;-1.70;99.90;;;;;;4985615;28;20026;-79
2023/03/05 03:35:26;;;;;;;2.28;1.45;;;-1.70;99.90;;;;;;4976174;28;20033;-79
2023/03/05 03:37:52;;;;;;;2.95;1.52;;;-1.60;99.90;;;;;;4988006;28;20019;-78
2023/03/05 03:40:18;;;;;;;2.10;1.35;;;-1.60;99.90;;;;;;4971122;28;20027;-81
2023/03/05 03:42:44;;;;;;;2.67;1.45;;;-1.60;99.90;;;;;;4973744;28;20039;-82
2023/03/05 03:45:10;;;;;;;2.65;1.50;;;-1.60;99.90;;;;;;4975711;28;20023;-80
2023/03/05 03:47:36;;;;;;;2.75;0.93;;;-1.60;99.90;;;;;;4981304;28;20479;-80
2023/03/05 03:50:03;;;;;;;2.17;1.30;;;-1.50;99.90;;;;;;4978988;28;20041;-80
2023/03/05 03:52:28;;;;;;;4.05;1.70;;;-1.60;99.90;;;;;;4959037;28;20554;-80
2023/03/05 03:55:00;;;;;;;1.98;1.23;;;-1.50;99.90;;;;;;4979925;28;20027;-81
2023/03/05 03:57:27;;;;;;;3.67;1.98;;;-1.50;99.90;;;;;;4987239;28;20015;-82
2023/03/05 03:59:53;;;;;;;3.95;1.67;;;-1.60;99.90;;;;;;4994822;28;20022;-81
2023/03/05 04:02:19;;;;;;;4.57;1.27;;;-1.60;99.90;;;;;;4978407;28;20031;-83
2023/03/05 04:04:45;;;;;;;2.17;1.52;;;-1.50;99.90;;;;;;4972799;28;20480;-81
2023/03/05 04:07:11;;;;;;;3.60;1.25;;;-1.50;99.90;;;;;;4973950;28;20074;-83
2023/03/05 04:09:37;;;;;;;3.00;1.85;;;-1.60;99.90;;;;;;4981866;28;20399;-82
2023/03/05 04:12:03;;;;;;;3.03;1.30;;;-1.60;99.90;;;;;;4966338;28;20019;-82
2023/03/05 04:14:29;;;;;;;2.53;1.50;;;-1.60;99.90;;;;;;4976768;28;20031;-80
2023/03/05 04:16:55;;;;;;;1.52;1.20;;;-1.60;99.90;;;;;;4960239;28;20022;-81
2023/03/05 04:19:21;;;;;;;2.58;1.25;;;-1.60;99.90;;;;;;4976187;28;21327;-80
2023/03/05 04:21:47;;;;;;;2.30;1.35;;;-1.50;99.90;;;;;;4978587;28;20023;-80
2023/03/05 04:24:12;;;;;;;4.22;1.42;;;-1.50;99.90;;;;;;4960379;28;20130;-81
2023/03/05 04:26:38;;;;;;;4.40;1.42;;;-1.50;99.90;;;;;;4961718;28;20023;-79
2023/03/05 04:29:04;;;;;;;2.17;1.33;;;-1.50;99.90;;;;;;4975758;28;20392;-81
2023/03/05 04:31:30;;;;;;;1.35;0.60;;;-1.60;99.90;;;;;;4975065;28;20022;-81
2023/03/05 04:33:56;;;;;;;2.22;1.50;;;-1.50;99.90;;;;;;4976148;28;20481;-81
2023/03/05 04:36:22;;;;;;;1.50;1.40;;;-1.50;99.90;;;;;;4974391;28;20055;-81
2023/03/05 04:38:48;;;;;;;3.17;1.52;;;-1.50;99.90;;;;;;4975291;28;20054;-81
2023/03/05 04:41:14;;;;;;;1.65;1.13;;;-1.50;99.90;;;;;;4975929;28;20034;-82
2023/03/05 04:43:39;;;;;;;2.17;1.10;;;-1.40;99.90;;;;;;4958221;28;20034;-82
2023/03/05 04:46:05;;;;;;;2.30;1.20;;;-1.40;99.90;;;;;;4975371;28;20038;-80
2023/03/05 04:48:31;;;;;;;2.95;1.80;;;-1.40;99.90;;;;;;4957556;28;20043;-82
2023/03/05 04:50:57;;;;;;;2.53;1.45;;;-1.30;99.90;;;;;;4974576;28;20025;-82
2023/03/05 04:53:23;;;;;;;2.90;1.50;;;-1.30;99.90;;;;;;4975121;28;20477;-82
2023/03/05 04:55:56;;;;;;;1.33;1.02;;;-1.40;99.90;;;;;;4975099;28;20023;-83
2023/03/05 04:58:22;;;;;;;2.95;1.60;;;-1.30;99.90;;;;;;4974548;28;20026;-82
2023/03/05 05:00:48;;;;;;;2.70;1.40;;;-1.30;99.90;;;;;;4975205;28;20035;-83
2023/03/05 05:03:14;;;;;;;1.33;1.02;;;-1.30;99.90;;;;;;4957059;28;20046;-84
2023/03/05 05:05:40;;;;;;;3.67;2.22;;;-1.30;99.90;;;;;;4974752;28;20022;-81
2023/03/05 05:08:06;;;;;;;3.05;1.85;;;-1.40;99.90;;;;;;4964857;28;20082;-82
2023/03/05 05:10:32;;;;;;;2.67;1.10;;;-1.40;99.90;;;;;;4987036;28;20118;-81
2023/03/05 05:12:58;;;;;;;4.75;1.10;;;-1.30;99.90;;;;;;4980641;28;20034;-81
2023/03/05 05:15:24;;;;;;;2.03;1.30;;;-1.30;99.90;;;;;;4960577;28;20105;-81
2023/03/05 05:17:51;;;;;;;1.30;1.02;;;-1.20;99.90;;;;;;4960513;28;20018;-82
2023/03/05 05:20:17;;;;;;;2.20;1.58;;;-1.20;99.90;;;;;;4979683;28;20415;-79
2023/03/05 05:22:43;;;;;;;2.15;1.13;;;-1.10;99.90;;;;;;4980090;28;20110;-81
2023/03/05 05:25:09;;;;;;;3.22;1.38;;;-1.10;99.90;;;;;;4980661;28;20050;-81
2023/03/05 05:27:37;;;;;;;1.65;1.40;;;-1.10;99.90;;;;;;4966093;28;20062;-82
2023/03/05 05:30:03;;;;;;;4.45;1.85;;;-1.30;99.90;;;;;;4991979;28;20053;-81
2023/03/05 05:32:29;;;;;;;4.45;1.00;;;-1.20;99.90;;;;;;4993260;28;20031;-81
2023/03/05 05:34:57;;;;;;;1.42;1.15;;;-1.10;99.90;;;;;;4977943;28;20082;-80
2023/03/05 05:37:24;;;;;;;2.38;1.20;;;-1.10;99.90;;;;;;4987317;28;20033;-82
2023/03/05 05:39:50;;;;;;;1.63;1.10;;;-1.10;99.90;;;;;;4993022;28;20057;-80
2023/03/05 05:42:17;;;;;;;2.08;1.10;;;-1.00;99.90;;;;;;4981377;28;20027;-82
2023/03/05 05:44:44;;;;;;;1.27;0.98;;;-1.00;99.90;;;;;;4981808;28;20034;-80
2023/03/05 05:47:10;;;;;;;2.88;1.13;;;-0.90;99.90;;;;;;4975034;28;20035;-80
2023/03/05 05:49:36;;;;;;;1.63;1.10;;;-0.90;99.90;;;;;;4974355;28;20085;-81
2023/03/05 05:52:02;;;;;;;2.00;1.42;;;-0.90;99.90;;;;;;4956863;28;20023;-82
2023/03/05 05:54:28;;;;;;;3.22;1.40;;;-0.80;99.90;;;;;;4974695;28;20019;-80
2023/03/05 05:56:53;;;;;;;1.63;1.20;;;-0.80;99.90;;;;;;4972903;28;20103;-80
2023/03/05 05:59:19;;;;;;;2.25;1.10;;;-0.70;99.90;;;;;;4965393;28;20035;-81
2023/03/05 06:01:45;;;;;;;4.20;1.25;;;-0.70;99.90;;;;;;4956968;28;20078;-82
2023/03/05 06:04:11;;;;;;;1.83;0.93;;;-0.70;99.90;;;;;;4959523;28;20468;-82
2023/03/05 06:06:37;;;;;;;1.45;0.93;;;-0.60;99.90;;;;;;4977327;28;20101;-82
2023/03/05 06:09:03;;;;;;;5.25;1.40;;;-0.50;99.90;;;;;;4959412;28;20051;-81
2023/03/05 06:11:29;;;;;;;4.72;1.40;;;-0.40;99.90;;;;;;4977265;28;20019;-79
2023/03/05 06:13:55;;;;;;;2.88;1.50;;;-0.40;99.90;;;;;;4978221;28;20026;-80
2023/03/05 06:16:23;;;;;;;3.72;1.55;;;-0.40;99.90;;;;;;4983391;28;20546;-80
2023/03/05 06:18:52;;;;;;;4.10;1.40;;;-0.40;99.90;;;;;;4975532;28;20023;-79
2023/03/05 06:21:20;;;;;;;6.35;1.60;;;-0.40;99.90;;;;;;4969834;28;20031;-81
2023/03/05 06:23:47;;;;;;;2.85;1.27;;;-0.40;99.90;;;;;;4974750;28;20023;-80
2023/03/05 06:26:18;;;;;;;1.42;1.20;;;-0.40;99.90;;;;;;4957119;28;20090;-80
2023/03/05 06:28:45;;;;;;;1.60;1.15;;;-0.40;99.90;;;;;;4975467;28;20124;-82
2023/03/05 06:31:17;;;;;;;4.45;1.35;;;-0.50;99.90;;;;;;4974945;28;20027;-80
2023/03/05 06:33:44;;;;;;;3.65;1.73;;;-0.40;99.90;;;;;;4975966;28;20101;-81
2023/03/05 06:36:12;;;;;;;3.95;1.60;;;-0.40;99.90;;;;;;4981600;28;20019;-79
2023/03/05 06:38:39;;;;;;;3.55;1.88;;;-0.40;99.90;;;;;;4969564;28;20038;-80
2023/03/05 06:41:08;;;;;;;1.65;1.35;;;-0.40;99.90;;;;;;4975653;28;20532;-82
2023/03/05 06:43:39;;;;;;;2.80;1.38;;;-0.40;99.90;;;;;;4957944;28;20518;-81
2023/03/05 06:46:07;;;;;;;3.58;1.25;;;-0.60;99.90;;;;;;4961841;28;20369;-81
2023/03/05 06:48:33;;;;;;;3.50;1.67;;;-0.60;99.90;;;;;;4975385;28;20027;-82
2023/03/05 06:50:59;;;;;;;2.78;1.58;;;-0.60;99.90;;;;;;4962673;28;20038;-81
2023/03/05 06:53:25;;;;;;;4.53;1.65;;;-0.70;99.90;;;;;;4978858;28;20111;-81
2023/03/05 06:55:53;;;;;;;7.97;2.28;;;-0.70;99.90;;;;;;4961742;28;20033;-83
2023/03/05 06:58:19;;;;;;;2.95;1.90;;;-0.70;99.90;;;;;;4973754;28;20058;-82
2023/03/05 07:00:45;;;;;;;4.00;2.23;;;-0.70;99.90;;;;;;4968106;28;20037;-82
2023/03/05 07:03:12;;;;;;;3.45;1.95;;;-0.80;99.90;;;;;;4987272;28;20094;-81
2023/03/05 07:05:41;;;;;;;4.47;2.20;;;-0.80;99.90;;;;;;4958780;28;20023;-82
2023/03/05 07:08:07;;;;;;;4.30;2.45;;;-0.80;99.90;;;;;;4988888;28;20094;-82
2023/03/05 07:10:41;;;;;;;11.45;2.55;;;-0.80;99.90;;;;;;4975227;28;20484;-82
2023/03/05 07:13:07;;;;;;;3.47;2.45;;;-0.70;99.90;;;;;;4971017;28;20085;-82
2023/03/05 07:15:36;;;;;;;6.50;3.20;;;-0.70;99.90;;;;;;4984484;28;20030;-82
2023/03/05 07:18:02;;;;;;;5.63;2.50;;;-0.70;99.90;;;;;;4986285;28;20023;-83
2023/03/05 07:20:28;;;;;;;3.83;2.92;;;-0.70;99.90;;;;;;4981542;28;20594;-82
2023/03/05 07:22:54;;;;;;;4.18;2.78;;;-0.70;99.90;;;;;;4978232;28;20078;-82
2023/03/05 07:25:20;;;;;;;2.70;1.90;;;-0.70;99.90;;;;;;4960737;28;20554;-81
2023/03/05 07:27:47;;;;;;;4.20;2.15;;;-0.70;99.90;;;;;;4978101;28;20435;-81
2023/03/05 07:30:14;;;;;;;3.97;2.17;;;-0.70;99.90;;;;;;4980170;28;20494;-81
2023/03/05 07:32:40;;;;;;;3.10;1.90;;;-0.60;99.90;;;;;;4965229;28;20039;-81
2023/03/05 07:35:06;;;;;;;3.53;2.63;;;-0.50;99.90;;;;;;4981174;28;20030;-81
2023/03/05 07:37:32;;;;;;;5.95;2.67;;;-0.50;99.90;;;;;;4979788;28;20019;-80
2023/03/05 07:39:58;;;;;;;3.40;2.20;;;-0.40;99.90;;;;;;4978912;28;20111;-81
2023/03/05 07:42:24;;;;;;;5.10;2.83;;;-0.40;99.90;;;;;;4960261;28;20099;-80
2023/03/05 07:44:50;;;;;;;4.35;2.70;;;-0.40;99.90;;;;;;4978644;28;20037;-82
2023/03/05 07:47:17;;;;;;;7.82;3.25;;;-0.40;99.90;;;;;;4980078;28;20484;-82
2023/03/05 07:49:42;;;;;;;5.55;2.40;;;-0.30;99.90;;;;;;4978860;28;20031;-81
2023/03/05 07:52:09;;;;;;;3.33;2.40;;;-0.20;99.90;;;;;;4978636;28;20056;-82
2023/03/05 07:54:37;;;;;;;6.28;2.53;;;-0.20;99.90;;;;;;4964722;28;20125;-83
2023/03/05 07:57:05;;;;;;;4.75;3.35;;;0.00;99.90;;;;;;4975690;28;20053;-83
2023/03/05 07:59:31;;;;;;;8.05;2.95;;;0.00;99.90;;;;;;4978896;28;20033;-81
2023/03/05 08:01:57;;;;;;;6.07;3.75;;;0.00;99.90;;;;;;4960597;28;20030;-81
2023/03/05 08:04:23;;;;;;;7.53;4.22;;;-0.10;99.90;;;;;;4965681;28;20049;-80
2023/03/05 08:06:49;;;;;;;7.97;3.72;;;-0.10;99.90;;;;;;4991635;28;20023;-81
2023/03/05 08:09:16;;;;;;;6.97;3.83;;;0.00;99.90;;;;;;4997392;28;20055;-81
2023/03/05 08:11:42;;;;;;;11.23;4.28;;;0.10;99.90;;;;;;4997053;28;20038;-82
2023/03/05 08:14:10;;;;;;;6.50;3.50;;;0.10;99.90;;;;;;4985108;28;20378;-82
2023/03/05 08:16:38;;;;;;;5.60;4.28;;;0.10;99.90;;;;;;4974872;28;20133;-81
2023/03/05 08:19:04;;;;;;;8.63;3.95;;;0.20;99.90;;;;;;4954055;28;20031;-81
2023/03/05 08:21:34;;;;;;;9.40;5.13;;;0.20;99.90;;;;;;4976794;28;20075;-81
2023/03/05 08:24:02;;;;;;;7.38;4.25;;;0.30;99.90;;;;;;4978109;28;20027;-83
2023/03/05 08:26:30;;;;;;;7.05;3.83;;;0.20;99.90;;;;;;4975326;28;20440;-81
2023/03/05 08:28:56;;;;;;;7.82;4.80;;;0.30;99.90;;;;;;4958061;28;20083;-81
2023/03/05 08:31:25;;;;;;;6.32;4.22;;;0.30;99.90;;;;;;4994105;28;20033;-82
2023/03/05 08:33:57;;;;;;;7.10;4.00;;;0.30;99.90;;;;;;4992107;28;20082;-82
2023/03/05 08:36:23;;;;;;;5.57;4.00;;;0.30;99.90;;;;;;4961756;28;20022;-81
2023/03/05 08:38:57;;;;;;;9.60;4.82;;;0.30;99.90;;;;;;4957456;28;20131;-82
2023/03/05 08:41:26;;;;;;;8.65;5.00;;;0.30;99.90;;;;;;4967824;28;20023;-83
2023/03/05 08:44:02;;;;;;;8.15;5.45;;;0.30;99.90;;;;;;4977493;28;20130;-81
2023/03/05 08:46:28;;;;;;;7.53;4.78;;;0.30;99.90;;;;;;4982009;28;20022;-82
2023/03/05 08:48:54;;;;;;;9.13;4.88;;;0.40;99.90;;;;;;4968348;28;20034;-80
2023/03/05 08:51:25;;;;;;;9.18;5.55;;;0.40;99.90;;;;;;4984218;28;20124;-82
2023/03/05 08:53:52;;;;;;;9.70;6.60;;;0.40;99.90;;;;;;4916050;29;20560;-81
2023/03/05 08:56:18;;;;;;;11.55;5.50;;;0.40;99.90;;;;;;4935964;29;20071;-81
2023/03/05 08:58:47;;;;;;;8.18;5.53;;;0.40;99.90;;;;;;4938117;29;20035;-82
2023/03/05 09:01:14;;;;;;;10.85;6.32;;;0.40;99.90;;;;;;4934123;29;20063;-79
2023/03/05 09:03:40;;;;;;;7.18;5.63;;;0.30;99.90;;;;;;4923387;29;20023;-79
2023/03/05 09:06:09;;;;;;;12.68;6.70;;;0.30;99.90;;;;;;4942225;29;20386;-80
2023/03/05 09:08:35;;;;;;;11.60;7.10;;;0.30;99.90;;;;;;4927304;29;20123;-81
2023/03/05 09:11:06;;;;;;;11.32;6.95;;;0.30;99.90;;;;;;4930478;29;20065;-81
2023/03/05 09:13:33;;;;;;;9.25;5.50;;;0.40;99.90;;;;;;4910028;29;20035;-81
2023/03/05 09:16:09;;;;;;;9.40;6.50;;;0.40;99.90;;;;;;4936361;29;20039;-80
2023/03/05 09:18:35;;;;;;;11.15;5.88;;;0.40;99.90;;;;;;4907646;29;20046;-80
2023/03/05 09:21:07;;;;;;;16.73;7.32;;;0.30;99.90;;;;;;4930245;29;20446;-80
2023/03/05 09:23:33;;;;;;;12.32;6.68;;;0.30;99.90;;;;;;4918717;29;20161;-79
2023/03/05 09:25:59;;;;;;;10.95;6.38;;;0.40;99.90;;;;;;4935606;29;20036;-82
2023/03/05 09:28:25;;;;;;;8.30;6.68;;;0.40;99.90;;;;;;4920884;29;20063;-81
2023/03/05 09:30:51;;;;;;;11.73;6.95;;;0.40;99.90;;;;;;4943163;28;20043;-80
2023/03/05 09:33:17;;;;;;;10.85;6.38;;;0.30;99.90;;;;;;4979277;28;20519;-80
2023/03/05 09:35:43;;;;;;;10.98;6.45;;;0.40;99.90;;;;;;4963461;28;20030;-80
2023/03/05 09:38:09;;;;;;;12.75;5.72;;;0.40;99.90;;;;;;4967055;28;20023;-79
2023/03/05 09:40:51;;;;;;;8.23;5.90;;;0.40;99.90;;;;;;4976832;28;20106;-80
2023/03/05 09:43:43;;;;;;;13.75;8.20;;;0.40;99.90;;;;;;4973561;28;20046;-81
2023/03/05 09:46:16;;;;;;;7.82;5.55;;;0.40;99.90;;;;;;4967955;28;20033;-80
2023/03/05 09:48:51;;;;;;;14.15;7.20;;;0.40;99.90;;;;;;4979641;28;20027;-87
2023/03/05 09:51:30;;;;;;;8.23;5.90;;;0.40;99.90;;;;;;4987870;28;20051;-84
2023/03/05 09:54:11;;;;;;;15.57;7.18;;;0.40;99.90;;;;;;4973920;28;20051;-87
2023/03/05 09:56:42;;;;;;;8.45;6.03;;;0.30;99.90;;;;;;4979427;28;20093;-87
2023/03/05 09:59:27;;;;;;;10.48;6.85;;;0.30;99.90;;;;;;4962855;28;20051;-85
2023/03/05 10:01:58;;;;;;;7.97;5.82;;;0.40;99.90;;;;;;4982482;28;20042;-85
2023/03/05 10:04:52;;;;;;;8.77;5.13;;;0.40;99.90;;;;;;4986284;28;20078;-85
2023/03/05 10:07:29;;;;;;;9.35;5.38;;;0.40;99.90;;;;;;4980957;28;20086;-85
2023/03/05 10:10:03;;;;;;;8.32;5.88;;;0.50;99.90;;;;;;4977689;28;20062;-85
2023/03/05 10:13:10;;;;;;;12.18;6.80;;;0.50;99.90;;;;;;4980717;28;20031;-82
2023/03/05 10:15:52;;;;;;;13.52;6.93;;;0.50;99.90;;;;;;4941350;29;20065;-87
2023/03/05 10:18:51;;;;;;;9.40;6.53;;;0.50;99.90;;;;;;4945155;29;20046;-89
2023/03/05 10:22:03;;;;;;;11.85;7.15;;;0.40;99.90;;;;;;4931292;28;20047;-85
2023/03/05 10:24:52;;;;;;;9.15;5.45;;;0.40;99.90;;;;;;4898911;29;20092;-86
2023/03/05 10:27:32;;;;;;;14.13;7.80;;;0.40;99.90;;;;;;4877391;29;20502;-85
2023/03/05 10:30:25;;;;;;;9.57;6.13;;;0.30;99.90;;;;;;4910911;29;20438;-87
2023/03/05 10:33:26;;;;;;;10.65;7.13;;;0.30;99.90;;;;;;4898553;29;20071;-86
2023/03/05 10:36:09;;;;;;;13.98;7.13;;;0.20;99.90;;;;;;4913650;28;20096;-85
2023/03/05 10:39:25;;;;;;;8.63;7.30;;;0.20;99.90;;;;;;4916088;29;20032;-85
2023/03/05 10:42:04;;;;;;;10.57;7.70;;;0.10;99.90;;;;;;4920318;28;20116;-83
2023/03/05 10:45:02;;;;;;;14.82;7.68;;;0.10;99.90;;;;;;4903974;29;20032;-85
2023/03/05 10:47:46;;;;;;;10.60;7.57;;;0.10;99.90;;;;;;4906192;29;20114;-86
2023/03/05 10:50:29;;;;;;;9.88;6.22;;;0.10;99.90;;;;;;4894704;29;20056;-85
2023/03/05 10:53:43;;;;;;;13.40;7.32;;;0.10;99.90;;;;;;4887720;29;20010;-86
2023/03/05 10:56:13;;;;;;;9.68;7.00;;;0.10;99.90;;;;;;4889144;29;20037;-86
2023/03/05 10:58:39;;;;;;;14.10;7.40;;;0.10;99.90;;;;;;4884070;29;20060;-87
2023/03/05 11:01:25;;;;;;;8.82;7.35;;;0.10;99.90;;;;;;4904133;29;20035;-83
2023/03/05 11:04:02;;;;;;;10.02;7.05;;;0.00;99.90;;;;;;4965917;28;20047;-86
2023/03/05 11:06:39;;;;;;;;;;;0.00;99.90;;;;;;4963940;28;20038;-85
2023/03/05 11:09:31;;;;;;;8.65;7.03;;;0.00;99.90;;;;;;4965628;28;20094;-88
2023/03/05 11:12:15;;;;;;;9.27;6.97;;;0.00;99.90;;;;;;4967412;28;20085;-88
2023/03/05 11:15:02;;;;;;;11.15;7.95;;;0.00;99.90;;;;;;4966962;28;20031;-85
2023/03/05 11:18:02;;;;;;;11.30;8.45;;;-0.10;99.90;;;;;;4979597;28;20105;-85
2023/03/05 11:20:34;;;;;;;12.13;8.07;;;-0.10;99.90;;;;;;4960491;28;20042;-85
2023/03/05 11:23:07;;;;;;;8.98;7.60;;;-0.20;99.90;;;;;;4967305;28;20046;-86
2023/03/05 11:25:35;;;;;;;7.72;6.93;;;-0.20;99.90;;;;;;4963297;28;20047;-88
2023/03/05 11:28:02;;;;;;;13.85;8.13;;;-0.30;99.90;;;;;;4970283;28;20086;-87
2023/03/05 11:30:36;;;;;;;9.43;6.72;;;-0.30;99.90;;;;;;4995441;28;20034;-85
2023/03/05 11:33:10;;;;;;;9.98;6.28;;;-0.30;99.90;;;;;;4967270;28;20051;-85
2023/03/05 11:35:38;;;;;;;9.05;6.55;;;-0.40;99.90;;;;;;4974118;28;20027;-86
2023/03/05 11:38:14;;;;;;;8.63;6.25;;;-0.40;99.90;;;;;;4975948;28;20028;-87
2023/03/05 11:40:41;;;;;;;11.02;7.00;;;-0.40;99.90;;;;;;4983086;28;20035;-89
2023/03/05 11:43:17;;;;;;;9.98;8.05;;;-0.40;99.90;;;;;;4998171;28;20031;-92
2023/03/05 11:45:46;;;;;;;10.57;6.50;;;-0.30;99.90;;;;;;4980671;28;20019;-86
2023/03/05 11:48:32;;;;;;;8.98;8.07;;;-0.10;99.90;;;;;;4993964;28;20019;-91
2023/03/05 11:51:06;;;;;;;7.90;5.80;;;0.00;99.90;;;;;;4981911;28;20038;-89
2023/03/05 11:53:35;;;;;;;9.00;6.57;;;0.00;99.90;;;;;;4982530;28;21191;-90
2023/03/05 11:56:26;;;;;;;7.05;5.88;;;-0.10;99.70;;;;;;4984588;28;20011;-89
2023/03/05 11:59:00;;;;;;;8.63;6.10;;;-0.10;99.50;;;;;;4959439;28;20386;-88
2023/03/05 12:01:30;;;;;;;8.85;6.53;;;-0.20;99.40;;;;;;4970273;28;20396;-87
2023/03/05 12:03:58;;;;;;;10.10;7.22;;;-0.20;99.40;;;;;;4989192;28;20099;-87
2023/03/05 12:06:39;;;;;;;9.45;7.22;;;-0.30;99.60;;;;;;4983074;28;20022;-88
2023/03/05 12:09:43;;;;;;;8.43;7.22;;;-0.30;99.80;;;;;;4978311;28;20047;-88
2023/03/05 12:12:31;;;;;;;9.15;5.97;;;-0.40;99.80;;;;;;4967066;28;20030;-88
2023/03/05 12:15:37;;;;;;;11.15;6.53;;;-0.40;99.90;;;;;;4955318;28;20045;-91
2023/03/05 12:18:12;;;;;;;6.72;6.05;;;-0.30;99.60;;;;;;4975130;28;20022;-84
2023/03/05 12:21:03;;;;;;;7.22;5.05;;;-0.20;99.60;;;;;;4961417;28;20062;-87
2023/03/05 12:23:44;;;;;;;8.00;6.07;;;-0.20;99.10;;;;;;4962041;29;20042;-86
2023/03/05 12:26:10;;;;;;;8.43;6.30;;;-0.20;98.40;;;;;;4963674;28;20019;-86
2023/03/05 12:28:45;;;;;;;7.05;4.78;;;-0.30;98.20;;;;;;4973817;28;20026;-89
2023/03/05 12:31:47;;;;;;;6.68;5.50;;;-0.30;98.40;;;;;;4992290;28;20054;-89
2023/03/05 12:34:38;;;;;;;12.00;6.05;;;-0.30;98.60;;;;;;4941803;28;20097;-88
2023/03/05 12:37:11;;;;;;;10.32;7.18;;;-0.30;98.90;;;;;;4955549;28;20023;-89
2023/03/05 12:39:46;;;;;;;9.82;7.25;;;-0.20;99.10;;;;;;4967249;28;20023;-87
2023/03/05 12:42:27;;;;;;;15.40;7.57;;;-0.20;99.30;;;;;;4963732;28;20027;-87
2023/03/05 12:45:28;;;;;;;7.97;6.78;;;-0.10;99.70;;;;;;4963045;28;20037;-84
2023/03/05 12:47:57;;;;;;;12.75;8.25;;;0.00;99.80;;;;;;4943819;28;20111;-85
2023/03/05 12:50:25;;;;;;;10.00;7.78;;;0.00;99.80;;;;;;4964726;28;20124;-85
2023/03/05 12:52:59;;;;;;;10.43;7.20;;;-0.10;99.60;;;;;;4962473;28;20027;-86
2023/03/05 12:55:46;;;;;;;13.27;7.28;;;-0.10;99.60;;;;;;4982071;28;20051;-87
2023/03/05 12:58:33;;;;;;;9.57;6.97;;;-0.20;99.70;;;;;;4980603;28;20030;-87
2023/03/05 13:01:31;;;;;;;11.02;6.55;;;-0.20;99.80;;;;;;4956385;28;20031;-90
2023/03/05 13:04:03;;;;;;;6.95;5.40;;;-0.20;99.90;;;;;;4970706;29;20076;-88
2023/03/05 13:06:36;;;;;;;7.13;6.03;;;-0.20;99.90;;;;;;4990729;28;20031;-88